createdAt,value
2018-07-11T00:00:03.830Z,22.20
2018-07-11T00:00:35.548Z,22.20
2018-07-11T00:01:07.257Z,22.20
2018-07-11T00:01:38.980Z,22.20
2018-07-11T00:02:10.679Z,22.20
2018-07-11T00:02:42.396Z,22.20
2018-07-11T00:03:14.158Z,22.20
2018-07-11T00:03:46.009Z,22.10
2018-07-11T00:04:17.709Z,22.20
2018-07-11T00:04:50.220Z,22.20
2018-07-11T00:05:22.759Z,22.20
2018-07-11T00:05:54.469Z,22.10
2018-07-11T00:06:26.189Z,22.10
2018-07-11T00:06:57.913Z,22.10
2018-07-11T00:07:29.632Z,22.10
2018-07-11T00:08:01.391Z,22.10
2018-07-11T00:08:33.123Z,22.10
2018-07-11T00:09:04.826Z,22.20
2018-07-11T00:09:36.546Z,22.20
2018-07-11T00:10:08.265Z,22.20
2018-07-11T00:10:39.974Z,22.20
2018-07-11T00:11:11.695Z,22.20
2018-07-11T00:11:43.402Z,22.20
2018-07-11T00:12:15.115Z,22.10
2018-07-11T00:12:46.826Z,22.10
2018-07-11T00:13:18.622Z,22.10
2018-07-11T00:13:50.324Z,22.10
2018-07-11T00:14:22.034Z,22.10
2018-07-11T00:14:53.751Z,22.10
2018-07-11T00:15:25.450Z,22.10
2018-07-11T00:15:57.182Z,22.10
2018-07-11T00:16:28.898Z,22.10
2018-07-11T00:17:00.609Z,22.20
2018-07-11T00:17:32.306Z,22.20
2018-07-11T00:18:04.031Z,22.20
2018-07-11T00:18:35.754Z,22.20
2018-07-11T00:19:07.466Z,22.20
2018-07-11T00:19:39.169Z,22.20
2018-07-11T00:20:10.887Z,22.20
2018-07-11T00:20:42.589Z,22.30
2018-07-11T00:21:14.322Z,22.30
2018-07-11T00:21:46.016Z,22.30
2018-07-11T00:22:17.731Z,22.40
2018-07-11T00:22:49.471Z,22.30
2018-07-11T00:23:21.192Z,22.30
2018-07-11T00:23:52.893Z,22.30
2018-07-11T00:24:24.597Z,22.30
2018-07-11T00:24:56.318Z,22.40
2018-07-11T00:25:28.033Z,22.40
2018-07-11T00:25:59.737Z,22.40
2018-07-11T00:26:31.451Z,22.40
2018-07-11T00:27:03.163Z,22.40
2018-07-11T00:27:34.869Z,22.40
2018-07-11T00:28:06.584Z,22.40
2018-07-11T00:28:38.291Z,22.40
2018-07-11T00:29:09.994Z,22.30
2018-07-11T00:29:41.711Z,22.40
2018-07-11T00:30:13.454Z,22.40
2018-07-11T00:30:45.158Z,22.40
2018-07-11T00:31:16.861Z,22.40
2018-07-11T00:31:48.579Z,22.40
2018-07-11T00:32:20.288Z,22.40
2018-07-11T00:32:52.009Z,22.40
2018-07-11T00:33:23.724Z,22.40
2018-07-11T00:33:55.420Z,22.40
2018-07-11T00:34:27.136Z,22.40
2018-07-11T00:34:58.846Z,22.40
2018-07-11T00:35:30.577Z,22.40
2018-07-11T00:36:02.282Z,22.30
2018-07-11T00:36:33.993Z,22.40
2018-07-11T00:37:05.742Z,22.30
2018-07-11T00:37:37.423Z,22.30
2018-07-11T00:38:09.141Z,22.40
2018-07-11T00:38:40.863Z,22.40
2018-07-11T00:39:12.587Z,22.30
2018-07-11T00:39:44.285Z,22.40
2018-07-11T00:40:16.019Z,22.40
2018-07-11T00:40:47.729Z,22.40
2018-07-11T00:41:19.461Z,22.40
2018-07-11T00:41:51.186Z,22.40
2018-07-11T00:42:22.901Z,22.40
2018-07-11T00:42:54.633Z,22.30
2018-07-11T00:43:26.334Z,22.40
2018-07-11T00:43:58.062Z,22.40
2018-07-11T00:45:01.803Z,22.40
2018-07-11T00:45:33.511Z,22.40
2018-07-11T00:46:05.222Z,22.40
2018-07-11T00:46:36.957Z,22.40
2018-07-11T00:47:08.678Z,22.40
2018-07-11T00:47:40.385Z,22.30
2018-07-11T00:48:12.108Z,22.30
2018-07-11T00:48:43.828Z,22.30
2018-07-11T00:49:15.543Z,22.30
2018-07-11T00:49:47.238Z,22.30
2018-07-11T00:50:18.972Z,22.30
2018-07-11T00:50:50.673Z,22.30
2018-07-11T00:51:22.388Z,22.30
2018-07-11T00:51:54.122Z,22.30
2018-07-11T00:52:25.829Z,22.30
2018-07-11T00:52:57.543Z,22.30
2018-07-11T00:53:29.258Z,22.30
2018-07-11T00:54:00.973Z,22.30
2018-07-11T00:54:32.679Z,22.30
2018-07-11T00:55:04.383Z,22.30
2018-07-11T00:55:36.094Z,22.40
2018-07-11T00:56:07.849Z,22.30
2018-07-11T00:56:39.546Z,22.30
2018-07-11T00:57:11.262Z,22.40
2018-07-11T00:57:42.994Z,22.30
2018-07-11T00:58:14.696Z,22.40
2018-07-11T00:58:46.400Z,22.40
2018-07-11T00:59:18.154Z,22.30
2018-07-11T00:59:49.846Z,22.30
2018-07-11T01:00:21.555Z,22.30
2018-07-11T01:00:53.269Z,22.30
2018-07-11T01:01:24.970Z,22.30
2018-07-11T01:01:56.708Z,22.30
2018-07-11T01:02:28.410Z,22.30
2018-07-11T01:03:00.159Z,22.30
2018-07-11T01:03:31.875Z,22.30
2018-07-11T01:04:03.594Z,22.30
2018-07-11T01:04:35.332Z,22.30
2018-07-11T01:05:07.030Z,22.30
2018-07-11T01:05:38.726Z,22.30
2018-07-11T01:06:10.434Z,22.30
2018-07-11T01:06:42.146Z,22.30
2018-07-11T01:07:13.846Z,22.30
2018-07-11T01:07:45.565Z,22.30
2018-07-11T01:08:18.038Z,22.20
2018-07-11T01:08:49.704Z,22.30
2018-07-11T01:09:21.409Z,22.20
2018-07-11T01:09:53.137Z,22.20
2018-07-11T01:10:24.829Z,22.20
2018-07-11T01:10:56.545Z,22.20
2018-07-11T01:11:28.259Z,22.20
2018-07-11T01:12:03.734Z,22.20
2018-07-11T01:12:35.447Z,22.10
2018-07-11T01:13:07.157Z,22.20
2018-07-11T01:13:38.862Z,22.30
2018-07-11T01:14:10.617Z,22.20
2018-07-11T01:14:42.353Z,22.20
2018-07-11T01:15:14.062Z,22.20
2018-07-11T01:15:45.783Z,22.20
2018-07-11T01:16:17.498Z,22.30
2018-07-11T01:16:49.233Z,22.30
2018-07-11T01:17:20.951Z,22.20
2018-07-11T01:17:52.650Z,22.20
2018-07-11T01:18:24.380Z,22.20
2018-07-11T01:18:56.109Z,22.20
2018-07-11T01:19:27.834Z,22.20
2018-07-11T01:19:59.549Z,22.20
2018-07-11T01:20:31.273Z,22.10
2018-07-11T01:21:02.987Z,22.10
2018-07-11T01:21:34.701Z,22.20
2018-07-11T01:22:06.433Z,22.10
2018-07-11T01:22:38.161Z,22.20
2018-07-11T01:23:09.865Z,22.20
2018-07-11T01:23:41.574Z,22.20
2018-07-11T01:24:13.289Z,22.10
2018-07-11T01:24:45.009Z,22.10
2018-07-11T01:25:16.724Z,22.10
2018-07-11T01:25:48.441Z,22.10
2018-07-11T01:26:20.130Z,22.10
2018-07-11T01:26:51.843Z,22.10
2018-07-11T01:27:23.564Z,22.10
2018-07-11T01:27:55.274Z,22.10
2018-07-11T01:28:26.993Z,22.20
2018-07-11T01:28:58.704Z,22.10
2018-07-11T01:29:30.412Z,22.20
2018-07-11T01:30:02.130Z,22.10
2018-07-11T01:30:33.838Z,22.20
2018-07-11T01:31:05.555Z,22.10
2018-07-11T01:31:37.261Z,22.20
2018-07-11T01:32:08.972Z,22.20
2018-07-11T01:32:40.705Z,22.20
2018-07-11T01:33:12.435Z,22.10
2018-07-11T01:33:44.137Z,22.20
2018-07-11T01:34:15.857Z,22.10
2018-07-11T01:34:47.585Z,22.10
2018-07-11T01:35:19.298Z,22.10
2018-07-11T01:35:51.013Z,22.10
2018-07-11T01:36:22.730Z,22.10
2018-07-11T01:36:54.467Z,22.10
2018-07-11T01:37:26.195Z,22.10
2018-07-11T01:37:57.918Z,22.00
2018-07-11T01:38:29.629Z,22.00
2018-07-11T01:39:01.341Z,22.00
2018-07-11T01:39:33.050Z,22.00
2018-07-11T01:40:04.777Z,21.90
2018-07-11T01:40:36.494Z,21.90
2018-07-11T01:41:08.343Z,22.00
2018-07-11T01:41:40.073Z,22.00
2018-07-11T01:42:11.781Z,21.90
2018-07-11T01:42:43.506Z,22.00
2018-07-11T01:43:15.215Z,22.00
2018-07-11T01:43:46.951Z,22.00
2018-07-11T01:44:18.667Z,22.00
2018-07-11T01:44:50.402Z,21.90
2018-07-11T01:45:22.118Z,22.00
2018-07-11T01:45:53.835Z,22.00
2018-07-11T01:46:25.552Z,22.00
2018-07-11T01:46:57.271Z,22.00
2018-07-11T01:47:28.995Z,22.00
2018-07-11T01:48:00.726Z,22.00
2018-07-11T01:48:32.431Z,22.00
2018-07-11T01:49:04.140Z,22.00
2018-07-11T01:49:35.846Z,22.10
2018-07-11T01:50:07.571Z,22.10
2018-07-11T01:50:39.267Z,22.10
2018-07-11T01:51:10.987Z,22.10
2018-07-11T01:51:42.709Z,22.10
2018-07-11T01:52:14.426Z,22.10
2018-07-11T01:52:46.153Z,22.10
2018-07-11T01:53:17.861Z,22.10
2018-07-11T01:53:49.582Z,22.00
2018-07-11T01:54:21.293Z,22.10
2018-07-11T01:54:52.999Z,22.10
2018-07-11T01:55:24.711Z,22.00
2018-07-11T01:55:56.413Z,22.10
2018-07-11T01:56:28.154Z,22.10
2018-07-11T01:56:59.847Z,22.10
2018-07-11T01:57:31.553Z,22.10
2018-07-11T01:58:03.270Z,22.00
2018-07-11T01:58:34.985Z,22.00
2018-07-11T01:59:06.689Z,22.00
2018-07-11T01:59:38.408Z,22.00
2018-07-11T02:00:10.115Z,22.00
2018-07-11T02:00:41.826Z,22.00
2018-07-11T02:01:13.556Z,22.00
2018-07-11T02:01:45.285Z,22.00
2018-07-11T02:02:16.998Z,21.90
2018-07-11T02:02:48.733Z,21.90
2018-07-11T02:03:20.442Z,21.90
2018-07-11T02:03:52.168Z,21.90
2018-07-11T02:04:23.877Z,21.90
2018-07-11T02:04:55.585Z,21.80
2018-07-11T02:05:27.332Z,21.90
2018-07-11T02:05:59.041Z,21.90
2018-07-11T02:06:30.771Z,21.90
2018-07-11T02:07:02.477Z,21.90
2018-07-11T02:07:34.191Z,21.90
2018-07-11T02:08:05.894Z,21.80
2018-07-11T02:08:37.647Z,21.90
2018-07-11T02:09:09.344Z,21.90
2018-07-11T02:09:41.068Z,21.90
2018-07-11T02:10:12.797Z,21.90
2018-07-11T02:10:44.501Z,21.90
2018-07-11T02:11:16.215Z,21.90
2018-07-11T02:11:47.921Z,22.00
2018-07-11T02:12:19.643Z,22.00
2018-07-11T02:12:51.357Z,21.90
2018-07-11T02:13:23.076Z,22.00
2018-07-11T02:13:54.781Z,22.00
2018-07-11T02:14:26.495Z,22.00
2018-07-11T02:14:58.222Z,22.00
2018-07-11T02:15:29.934Z,22.00
2018-07-11T02:16:01.646Z,22.00
2018-07-11T02:16:33.362Z,22.00
2018-07-11T02:17:05.079Z,22.00
2018-07-11T02:17:36.810Z,22.00
2018-07-11T02:18:08.520Z,22.00
2018-07-11T02:18:40.239Z,22.00
2018-07-11T02:19:11.982Z,22.00
2018-07-11T02:19:43.693Z,22.00
2018-07-11T02:20:15.414Z,22.00
2018-07-11T02:20:47.115Z,21.90
2018-07-11T02:21:18.829Z,22.00
2018-07-11T02:21:50.533Z,22.00
2018-07-11T02:22:22.242Z,22.00
2018-07-11T02:22:53.963Z,22.00
2018-07-11T02:23:25.666Z,22.10
2018-07-11T02:23:57.379Z,22.00
2018-07-11T02:24:29.111Z,22.10
2018-07-11T02:25:00.808Z,22.10
2018-07-11T02:25:32.515Z,22.00
2018-07-11T02:26:04.217Z,22.10
2018-07-11T02:26:35.935Z,22.10
2018-07-11T02:27:07.649Z,22.10
2018-07-11T02:27:39.362Z,22.10
2018-07-11T02:28:11.074Z,22.10
2018-07-11T02:28:42.798Z,22.10
2018-07-11T02:29:14.510Z,22.10
2018-07-11T02:29:46.255Z,22.10
2018-07-11T02:30:17.980Z,22.10
2018-07-11T02:30:49.692Z,22.10
2018-07-11T02:31:21.406Z,22.10
2018-07-11T02:31:53.119Z,22.20
2018-07-11T02:32:24.831Z,22.20
2018-07-11T02:32:56.550Z,22.20
2018-07-11T02:33:28.256Z,22.20
2018-07-11T02:33:59.971Z,22.20
2018-07-11T02:34:31.700Z,22.20
2018-07-11T02:35:03.397Z,22.20
2018-07-11T02:35:35.118Z,22.20
2018-07-11T02:36:06.828Z,22.10
2018-07-11T02:36:38.538Z,22.10
2018-07-11T02:37:10.259Z,22.10
2018-07-11T02:37:41.966Z,22.10
2018-07-11T02:38:13.681Z,22.10
2018-07-11T02:38:45.386Z,22.10
2018-07-11T02:39:17.120Z,22.10
2018-07-11T02:39:48.874Z,22.00
2018-07-11T02:40:20.594Z,22.10
2018-07-11T02:40:52.304Z,22.10
2018-07-11T02:41:24.006Z,22.10
2018-07-11T02:41:55.738Z,22.10
2018-07-11T02:42:27.453Z,22.10
2018-07-11T02:42:59.154Z,22.10
2018-07-11T02:43:30.870Z,22.10
2018-07-11T02:44:02.570Z,22.10
2018-07-11T02:44:34.277Z,22.10
2018-07-11T02:45:06.010Z,22.10
2018-07-11T02:45:37.718Z,22.00
2018-07-11T02:46:09.452Z,22.00
2018-07-11T02:46:41.156Z,22.00
2018-07-11T02:47:12.874Z,22.10
2018-07-11T02:47:44.596Z,22.10
2018-07-11T02:48:16.309Z,22.10
2018-07-11T02:48:48.022Z,22.10
2018-07-11T02:49:19.731Z,22.10
2018-07-11T02:49:51.471Z,22.10
2018-07-11T02:50:23.191Z,22.00
2018-07-11T02:50:54.909Z,22.00
2018-07-11T02:51:26.608Z,22.10
2018-07-11T02:51:58.341Z,22.00
2018-07-11T02:52:30.073Z,22.00
2018-07-11T02:53:01.794Z,22.00
2018-07-11T02:53:33.544Z,22.00
2018-07-11T02:54:05.270Z,21.90
2018-07-11T02:54:36.993Z,22.00
2018-07-11T02:55:08.742Z,22.00
2018-07-11T02:55:40.450Z,22.00
2018-07-11T02:56:12.162Z,22.00
2018-07-11T02:56:43.891Z,22.10
2018-07-11T02:57:15.598Z,22.10
2018-07-11T02:57:47.330Z,22.00
2018-07-11T02:58:19.052Z,22.00
2018-07-11T02:58:50.763Z,22.00
2018-07-11T02:59:22.474Z,22.00
2018-07-11T02:59:54.181Z,21.90
2018-07-11T03:00:25.908Z,21.90
2018-07-11T03:00:57.611Z,21.80
2018-07-11T03:01:29.330Z,21.80
2018-07-11T03:02:01.048Z,21.80
2018-07-11T03:02:32.769Z,21.80
2018-07-11T03:03:04.478Z,21.70
2018-07-11T03:03:36.206Z,21.70
2018-07-11T03:04:07.925Z,21.70
2018-07-11T03:04:39.641Z,21.80
2018-07-11T03:05:11.393Z,21.80
2018-07-11T03:05:43.100Z,21.80
2018-07-11T03:06:14.825Z,21.80
2018-07-11T03:06:46.539Z,21.80
2018-07-11T03:07:18.252Z,21.80
2018-07-11T03:07:49.962Z,21.80
2018-07-11T03:08:21.683Z,21.80
2018-07-11T03:08:53.402Z,21.80
2018-07-11T03:09:25.105Z,21.80
2018-07-11T03:09:56.831Z,21.80
2018-07-11T03:10:28.578Z,21.80
2018-07-11T03:11:00.291Z,21.80
2018-07-11T03:11:32.001Z,21.80
2018-07-11T03:12:03.740Z,21.80
2018-07-11T03:12:35.458Z,21.80
2018-07-11T03:13:07.182Z,21.70
2018-07-11T03:13:38.894Z,21.70
2018-07-11T03:14:10.614Z,21.70
2018-07-11T03:14:42.334Z,21.80
2018-07-11T03:15:14.059Z,21.80
2018-07-11T03:15:45.791Z,21.70
2018-07-11T03:16:17.490Z,21.80
2018-07-11T03:16:49.214Z,21.80
2018-07-11T03:17:20.930Z,21.80
2018-07-11T03:17:52.636Z,21.90
2018-07-11T03:18:24.372Z,21.90
2018-07-11T03:18:56.112Z,21.90
2018-07-11T03:19:27.823Z,21.80
2018-07-11T03:19:59.539Z,21.80
2018-07-11T03:20:31.272Z,21.70
2018-07-11T03:21:03.019Z,21.70
2018-07-11T03:21:34.737Z,21.70
2018-07-11T03:22:06.440Z,21.70
2018-07-11T03:22:38.158Z,21.70
2018-07-11T03:23:09.891Z,21.70
2018-07-11T03:23:41.603Z,21.70
2018-07-11T03:24:13.315Z,21.80
2018-07-11T03:24:45.024Z,21.80
2018-07-11T03:25:16.734Z,21.80
2018-07-11T03:25:48.452Z,21.80
2018-07-11T03:26:20.209Z,21.80
2018-07-11T03:26:51.917Z,21.90
2018-07-11T03:27:23.635Z,21.90
2018-07-11T03:27:55.350Z,21.90
2018-07-11T03:28:27.063Z,21.90
2018-07-11T03:28:58.779Z,21.90
2018-07-11T03:29:30.494Z,21.90
2018-07-11T03:30:03.676Z,21.90
2018-07-11T03:30:35.496Z,21.80
2018-07-11T03:31:07.201Z,21.90
2018-07-11T03:31:38.927Z,21.90
2018-07-11T03:32:10.648Z,21.80
2018-07-11T03:32:42.367Z,21.80
2018-07-11T03:33:14.070Z,21.80
2018-07-11T03:33:45.782Z,21.70
2018-07-11T03:34:17.509Z,21.80
2018-07-11T03:34:49.234Z,21.80
2018-07-11T03:35:20.997Z,21.80
2018-07-11T03:35:52.730Z,21.80
2018-07-11T03:36:24.452Z,21.80
2018-07-11T03:36:56.151Z,21.90
2018-07-11T03:37:27.866Z,21.80
2018-07-11T03:37:59.589Z,21.90
2018-07-11T03:38:31.286Z,21.90
2018-07-11T03:39:03.002Z,21.90
2018-07-11T03:39:34.723Z,21.90
2018-07-11T03:40:06.432Z,21.90
2018-07-11T03:40:38.207Z,21.90
2018-07-11T03:41:09.903Z,21.90
2018-07-11T03:41:41.630Z,21.90
2018-07-11T03:42:13.367Z,21.80
2018-07-11T03:42:45.064Z,21.90
2018-07-11T03:43:16.776Z,21.90
2018-07-11T03:43:48.511Z,21.80
2018-07-11T03:44:20.237Z,21.80
2018-07-11T03:44:51.949Z,21.80
2018-07-11T03:45:23.667Z,21.80
2018-07-11T03:45:55.374Z,21.80
2018-07-11T03:46:27.315Z,21.80
2018-07-11T03:46:59.472Z,21.80
2018-07-11T03:47:31.861Z,21.90
2018-07-11T03:48:03.583Z,21.90
2018-07-11T03:48:35.295Z,21.80
2018-07-11T03:49:07.019Z,21.90
2018-07-11T03:49:38.745Z,21.90
2018-07-11T03:50:10.462Z,21.90
2018-07-11T03:50:42.167Z,21.90
2018-07-11T03:51:13.906Z,21.90
2018-07-11T03:51:45.640Z,21.90
2018-07-11T03:52:17.347Z,21.90
2018-07-11T03:52:49.062Z,21.90
2018-07-11T03:53:20.778Z,21.90
2018-07-11T03:53:52.572Z,21.80
2018-07-11T03:54:24.230Z,21.90
2018-07-11T03:54:55.940Z,21.90
2018-07-11T03:55:27.668Z,21.90
2018-07-11T03:55:59.390Z,21.90
2018-07-11T03:56:31.079Z,21.90
2018-07-11T03:57:02.798Z,21.90
2018-07-11T03:57:34.541Z,21.90
2018-07-11T03:58:06.263Z,21.90
2018-07-11T03:58:37.989Z,21.90
2018-07-11T03:59:09.693Z,22.00
2018-07-11T03:59:41.401Z,21.90
2018-07-11T04:00:13.151Z,21.90
2018-07-11T04:00:44.919Z,21.90
2018-07-11T04:01:16.642Z,22.00
2018-07-11T04:01:48.369Z,21.90
2018-07-11T04:02:20.075Z,22.00
2018-07-11T04:02:51.799Z,22.00
2018-07-11T04:03:23.528Z,21.90
2018-07-11T04:03:55.244Z,21.90
2018-07-11T04:04:26.954Z,22.00
2018-07-11T04:04:58.701Z,21.90
2018-07-11T04:05:30.379Z,21.90
2018-07-11T04:06:02.105Z,21.90
2018-07-11T04:06:33.826Z,21.90
2018-07-11T04:07:05.536Z,21.90
2018-07-11T04:07:37.312Z,21.90
2018-07-11T04:08:09.031Z,21.90
2018-07-11T04:08:40.718Z,22.00
2018-07-11T04:09:12.455Z,22.00
2018-07-11T04:09:44.186Z,22.00
2018-07-11T04:10:15.910Z,21.90
2018-07-11T04:10:47.621Z,21.90
2018-07-11T04:11:19.322Z,21.80
2018-07-11T04:11:51.080Z,21.80
2018-07-11T04:12:22.785Z,21.80
2018-07-11T04:12:54.542Z,21.80
2018-07-11T04:13:26.277Z,21.80
2018-07-11T04:13:57.991Z,21.80
2018-07-11T04:14:29.711Z,21.80
2018-07-11T04:15:01.412Z,21.80
2018-07-11T04:15:33.137Z,21.80
2018-07-11T04:16:04.888Z,21.80
2018-07-11T04:16:36.574Z,21.80
2018-07-11T04:17:08.286Z,21.80
2018-07-11T04:17:40.042Z,21.80
2018-07-11T04:18:11.742Z,21.80
2018-07-11T04:18:43.450Z,21.80
2018-07-11T04:19:15.222Z,21.80
2018-07-11T04:19:46.874Z,21.70
2018-07-11T04:20:18.658Z,21.70
2018-07-11T04:20:50.377Z,21.30
2018-07-11T04:21:22.087Z,21.70
2018-07-11T04:21:53.821Z,21.60
2018-07-11T04:22:25.533Z,21.60
2018-07-11T04:22:57.243Z,21.50
2018-07-11T04:23:28.997Z,21.50
2018-07-11T04:24:00.738Z,21.50
2018-07-11T04:24:32.434Z,21.50
2018-07-11T04:25:04.145Z,21.50
2018-07-11T04:25:35.932Z,21.50
2018-07-11T04:26:07.653Z,21.50
2018-07-11T04:26:39.359Z,21.50
2018-07-11T04:27:11.081Z,21.50
2018-07-11T04:27:42.793Z,21.50
2018-07-11T04:28:14.514Z,21.50
2018-07-11T04:28:46.292Z,21.60
2018-07-11T04:29:17.949Z,21.60
2018-07-11T04:29:49.672Z,21.60
2018-07-11T04:30:21.401Z,21.50
2018-07-11T04:30:53.156Z,21.50
2018-07-11T04:31:24.910Z,21.50
2018-07-11T04:31:56.633Z,21.40
2018-07-11T04:32:28.364Z,21.40
2018-07-11T04:33:00.043Z,21.40
2018-07-11T04:33:31.800Z,21.50
2018-07-11T04:34:03.490Z,21.40
2018-07-11T04:34:35.235Z,21.40
2018-07-11T04:35:06.926Z,21.50
2018-07-11T04:35:38.633Z,21.50
2018-07-11T04:36:10.342Z,21.50
2018-07-11T04:36:42.078Z,21.50
2018-07-11T04:37:13.807Z,21.50
2018-07-11T04:37:45.537Z,21.50
2018-07-11T04:38:17.251Z,21.50
2018-07-11T04:39:21.002Z,21.50
2018-07-11T04:39:52.726Z,21.50
2018-07-11T04:40:24.448Z,21.50
2018-07-11T04:40:56.178Z,21.50
2018-07-11T04:41:27.882Z,21.50
2018-07-11T04:42:00.028Z,21.50
2018-07-11T04:42:31.722Z,21.50
2018-07-11T04:43:03.436Z,21.50
2018-07-11T04:43:35.157Z,21.50
2018-07-11T04:44:06.880Z,21.50
2018-07-11T04:44:38.619Z,21.50
2018-07-11T04:45:10.350Z,21.50
2018-07-11T04:45:42.060Z,21.50
2018-07-11T04:46:13.855Z,21.50
2018-07-11T04:46:45.552Z,21.50
2018-07-11T04:47:17.266Z,21.50
2018-07-11T04:47:48.990Z,21.50
2018-07-11T04:48:20.714Z,21.50
2018-07-11T04:48:52.429Z,21.50
2018-07-11T04:49:24.148Z,21.50
2018-07-11T04:49:55.861Z,21.50
2018-07-11T04:50:27.600Z,21.50
2018-07-11T04:50:59.302Z,21.50
2018-07-11T04:51:31.017Z,21.40
2018-07-11T04:52:02.732Z,21.50
2018-07-11T04:52:34.520Z,21.50
2018-07-11T04:53:06.169Z,21.50
2018-07-11T04:53:37.892Z,21.50
2018-07-11T04:54:09.608Z,21.50
2018-07-11T04:54:41.313Z,21.50
2018-07-11T04:55:13.018Z,21.50
2018-07-11T04:55:44.745Z,21.50
2018-07-11T04:56:16.458Z,21.50
2018-07-11T04:56:48.168Z,21.50
2018-07-11T04:57:19.907Z,21.50
2018-07-11T04:57:51.632Z,21.50
2018-07-11T04:58:23.486Z,21.50
2018-07-11T04:58:55.220Z,21.50
2018-07-11T04:59:26.892Z,21.50
2018-07-11T04:59:58.594Z,21.40
2018-07-11T05:00:30.303Z,21.40
2018-07-11T05:01:02.042Z,21.40
2018-07-11T05:01:33.757Z,21.40
2018-07-11T05:02:05.496Z,21.30
2018-07-11T05:03:14.253Z,21.30
2018-07-11T05:03:45.971Z,21.30
2018-07-11T05:04:17.687Z,21.30
2018-07-11T05:04:49.409Z,21.30
2018-07-11T05:05:21.109Z,21.20
2018-07-11T05:05:52.848Z,21.20
2018-07-11T05:06:24.571Z,21.20
2018-07-11T05:06:56.292Z,21.20
2018-07-11T05:07:28.002Z,21.20
2018-07-11T05:07:59.753Z,21.10
2018-07-11T05:08:31.474Z,21.10
2018-07-11T05:09:03.195Z,21.20
2018-07-11T05:09:34.929Z,21.20
2018-07-11T05:10:06.654Z,21.20
2018-07-11T05:10:38.361Z,21.10
2018-07-11T05:11:10.123Z,21.10
2018-07-11T05:11:41.776Z,21.10
2018-07-11T05:12:13.485Z,21.10
2018-07-11T05:12:45.206Z,21.10
2018-07-11T05:13:16.940Z,21.10
2018-07-11T05:13:48.645Z,21.10
2018-07-11T05:14:20.376Z,21.10
2018-07-11T05:14:52.099Z,21.20
2018-07-11T05:15:23.809Z,21.10
2018-07-11T05:15:55.516Z,21.10
2018-07-11T05:16:27.247Z,21.10
2018-07-11T05:16:58.963Z,21.20
2018-07-11T05:17:30.689Z,21.20
2018-07-11T05:18:02.408Z,21.20
2018-07-11T05:18:34.125Z,21.20
2018-07-11T05:19:05.877Z,21.20
2018-07-11T05:19:37.587Z,21.20
2018-07-11T05:20:09.310Z,21.20
2018-07-11T05:20:41.025Z,21.20
2018-07-11T05:21:12.738Z,21.20
2018-07-11T05:21:44.440Z,21.20
2018-07-11T05:22:16.150Z,21.10
2018-07-11T05:22:47.866Z,21.10
2018-07-11T05:23:19.856Z,21.00
2018-07-11T05:24:23.568Z,21.00
2018-07-11T05:24:55.307Z,21.10
2018-07-11T05:25:27.122Z,21.00
2018-07-11T05:25:58.850Z,21.10
2018-07-11T05:26:30.703Z,21.00
2018-07-11T05:27:02.514Z,21.10
2018-07-11T05:27:34.287Z,21.10
2018-07-11T05:28:05.984Z,21.00
2018-07-11T05:28:37.686Z,21.00
2018-07-11T05:29:09.421Z,21.00
2018-07-11T05:29:41.139Z,21.00
2018-07-11T05:30:12.864Z,21.00
2018-07-11T05:30:44.583Z,21.10
2018-07-11T05:31:16.278Z,21.10
2018-07-11T05:31:48.014Z,21.10
2018-07-11T05:32:19.719Z,21.10
2018-07-11T05:32:51.432Z,21.10
2018-07-11T05:33:23.139Z,21.10
2018-07-11T05:33:54.834Z,21.10
2018-07-11T05:34:26.538Z,21.00
2018-07-11T05:34:58.253Z,21.00
2018-07-11T05:35:30.252Z,21.00
2018-07-11T05:36:01.975Z,21.00
2018-07-11T05:36:33.682Z,21.00
2018-07-11T05:37:06.205Z,21.00
2018-07-11T05:37:37.937Z,21.00
2018-07-11T05:38:09.642Z,21.00
2018-07-11T05:38:41.352Z,21.00
2018-07-11T05:39:13.063Z,20.90
2018-07-11T05:39:44.784Z,20.90
2018-07-11T05:40:16.505Z,21.00
2018-07-11T05:40:48.225Z,20.90
2018-07-11T05:41:19.928Z,20.90
2018-07-11T05:41:51.658Z,20.90
2018-07-11T05:42:23.393Z,20.80
2018-07-11T05:42:55.097Z,20.80
2018-07-11T05:43:26.823Z,20.90
2018-07-11T05:43:58.554Z,20.80
2018-07-11T05:44:30.274Z,20.90
2018-07-11T05:45:01.981Z,20.90
2018-07-11T05:45:33.694Z,20.80
2018-07-11T05:46:05.415Z,20.80
2018-07-11T05:46:37.135Z,20.80
2018-07-11T05:47:08.874Z,20.80
2018-07-11T05:47:40.609Z,20.80
2018-07-11T05:48:12.353Z,20.80
2018-07-11T05:48:44.036Z,20.80
2018-07-11T05:49:15.751Z,20.70
2018-07-11T05:49:47.462Z,20.70
2018-07-11T05:50:19.185Z,20.70
2018-07-11T05:50:50.890Z,20.70
2018-07-11T05:51:22.600Z,20.70
2018-07-11T05:51:54.465Z,20.70
2018-07-11T05:52:26.134Z,20.70
2018-07-11T05:52:58.066Z,20.80
2018-07-11T05:53:29.986Z,20.80
2018-07-11T05:54:01.787Z,20.80
2018-07-11T05:54:33.549Z,20.80
2018-07-11T05:55:05.342Z,20.80
2018-07-11T05:55:37.095Z,20.80
2018-07-11T05:56:08.793Z,20.80
2018-07-11T05:56:40.506Z,20.70
2018-07-11T05:57:12.219Z,20.70
2018-07-11T05:57:44.509Z,20.80
2018-07-11T05:58:16.193Z,20.70
2018-07-11T05:58:47.919Z,20.70
2018-07-11T05:59:19.632Z,20.70
2018-07-11T05:59:51.403Z,20.70
2018-07-11T06:00:23.074Z,20.70
2018-07-11T06:00:54.834Z,20.80
2018-07-11T06:01:26.555Z,20.70
2018-07-11T06:01:58.266Z,20.80
2018-07-11T06:02:29.970Z,20.70
2018-07-11T06:03:01.691Z,20.70
2018-07-11T06:03:33.396Z,20.80
2018-07-11T06:04:05.111Z,20.70
2018-07-11T06:04:36.833Z,20.70
2018-07-11T06:05:08.550Z,20.70
2018-07-11T06:05:40.300Z,20.80
2018-07-11T06:06:12.025Z,20.80
2018-07-11T06:06:43.736Z,20.70
2018-07-11T06:07:15.449Z,20.70
2018-07-11T06:07:47.178Z,20.80
2018-07-11T06:08:18.912Z,20.80
2018-07-11T06:09:22.644Z,20.80
2018-07-11T06:09:54.363Z,20.80
2018-07-11T06:10:26.079Z,20.70
2018-07-11T06:10:57.778Z,20.70
2018-07-11T06:11:29.515Z,20.80
2018-07-11T06:12:01.236Z,20.70
2018-07-11T06:12:32.930Z,20.70
2018-07-11T06:13:04.749Z,20.70
2018-07-11T06:13:37.002Z,20.60
2018-07-11T06:14:08.693Z,20.60
2018-07-11T06:14:40.411Z,20.60
2018-07-11T06:15:12.140Z,20.70
2018-07-11T06:15:43.838Z,20.60
2018-07-11T06:16:15.553Z,20.60
2018-07-11T06:16:47.322Z,20.60
2018-07-11T06:17:19.213Z,20.60
2018-07-11T06:17:50.925Z,20.70
2018-07-11T06:18:22.645Z,20.70
2018-07-11T06:18:54.353Z,20.70
2018-07-11T06:19:26.188Z,20.70
2018-07-11T06:19:57.901Z,20.80
2018-07-11T06:20:29.614Z,20.80
2018-07-11T06:21:01.330Z,20.80
2018-07-11T06:21:33.055Z,20.90
2018-07-11T06:22:04.770Z,20.90
2018-07-11T06:22:36.474Z,20.90
2018-07-11T06:23:08.201Z,20.90
2018-07-11T06:23:39.934Z,20.90
2018-07-11T06:24:11.659Z,20.90
2018-07-11T06:24:43.365Z,20.90
2018-07-11T06:25:15.078Z,20.90
2018-07-11T06:25:46.865Z,20.90
2018-07-11T06:26:18.608Z,20.90
2018-07-11T06:26:50.314Z,20.80
2018-07-11T06:27:22.038Z,20.80
2018-07-11T06:27:53.808Z,20.80
2018-07-11T06:28:25.484Z,20.70
2018-07-11T06:28:57.185Z,20.70
2018-07-11T06:29:28.912Z,20.70
2018-07-11T06:30:00.625Z,20.70
2018-07-11T06:30:32.338Z,20.70
2018-07-11T06:31:04.109Z,20.70
2018-07-11T06:31:35.801Z,20.70
2018-07-11T06:32:07.581Z,20.70
2018-07-11T06:32:39.331Z,20.60
2018-07-11T06:33:11.058Z,20.70
2018-07-11T06:33:42.781Z,20.70
2018-07-11T06:34:14.569Z,20.70
2018-07-11T06:34:46.285Z,20.60
2018-07-11T06:35:17.996Z,20.60
2018-07-11T06:35:49.728Z,20.60
2018-07-11T06:36:21.430Z,20.60
2018-07-11T06:36:53.156Z,20.60
2018-07-11T06:37:24.884Z,20.60
2018-07-11T06:37:56.621Z,20.60
2018-07-11T06:38:28.331Z,20.70
2018-07-11T06:39:00.034Z,20.70
2018-07-11T06:39:31.743Z,20.70
2018-07-11T06:40:03.467Z,20.70
2018-07-11T06:40:35.162Z,20.80
2018-07-11T06:41:06.887Z,20.70
2018-07-11T06:41:38.619Z,20.80
2018-07-11T06:42:10.326Z,20.70
2018-07-11T06:42:42.047Z,20.70
2018-07-11T06:43:13.778Z,20.70
2018-07-11T06:43:45.514Z,20.70
2018-07-11T06:44:17.251Z,20.70
2018-07-11T06:44:48.954Z,20.70
2018-07-11T06:45:20.667Z,20.70
2018-07-11T06:45:52.412Z,20.70
2018-07-11T06:46:24.122Z,20.70
2018-07-11T06:46:55.827Z,20.80
2018-07-11T06:47:27.565Z,20.80
2018-07-11T06:47:59.315Z,20.80
2018-07-11T06:48:30.996Z,20.80
2018-07-11T06:49:02.706Z,20.80
2018-07-11T06:49:34.480Z,20.80
2018-07-11T06:50:06.174Z,20.80
2018-07-11T06:50:37.878Z,20.70
2018-07-11T06:51:09.720Z,20.70